Time;durP1;ratioP1;P1;durP2;ratioP2;P2;SDS_P1;SDS_P2;PMS_P1;PMS_P2;Temp;Humidity;BMP_temperature;BMP_pressure;BME280_temperature;BME280_humidity;BME280_pressure;Samples;Min_cycle;Max_cycle;Signal;HPM_P1;HPM_P2
2023/09/17 00:01:59;;;;;;;1999.90;999.90;;;21.00;99.90;;;;;;5018280;28;20982;-74
2023/09/17 00:04:24;;;;;;;1999.90;999.90;;;21.10;99.90;;;;;;5017967;28;20180;-74
2023/09/17 00:06:50;;;;;;;1999.90;999.90;;;21.10;99.90;;;;;;5016402;28;20976;-71
2023/09/17 00:09:17;;;;;;;1999.90;999.90;;;21.10;99.90;;;;;;5015446;28;20187;-73
2023/09/17 00:11:43;;;;;;;1999.90;999.90;;;21.10;99.90;;;;;;5016512;28;21182;-74
2023/09/17 00:14:09;;;;;;;1999.90;999.90;;;21.10;99.90;;;;;;5016915;28;20421;-74
2023/09/17 00:16:35;;;;;;;1999.90;999.90;;;21.20;99.90;;;;;;5016736;28;20215;-74
2023/09/17 00:19:00;;;;;;;1999.90;999.90;;;21.20;99.90;;;;;;5016762;28;20204;-74
2023/09/17 00:21:26;;;;;;;1999.90;999.90;;;21.20;99.90;;;;;;5016184;28;20218;-74
2023/09/17 00:23:52;;;;;;;1999.90;999.90;;;21.10;99.90;;;;;;5015936;28;20202;-74
2023/09/17 00:26:17;;;;;;;1999.90;999.90;;;21.10;99.90;;;;;;5017155;28;20544;-74
2023/09/17 00:28:43;;;;;;;1999.90;999.90;;;21.20;99.90;;;;;;5015323;28;20823;-74
2023/09/17 00:31:08;;;;;;;1999.90;999.90;;;21.10;99.90;;;;;;5016308;28;20247;-74
2023/09/17 00:33:34;;;;;;;1999.90;999.90;;;21.10;99.90;;;;;;5014665;28;20247;-71
2023/09/17 00:35:59;;;;;;;1999.90;999.90;;;21.10;99.90;;;;;;5014990;28;20177;-74
2023/09/17 00:38:25;;;;;;;1999.90;999.90;;;21.10;99.90;;;;;;5015529;28;20805;-74
2023/09/17 00:40:51;;;;;;;1999.90;999.90;;;21.10;99.90;;;;;;5017224;28;20190;-73
2023/09/17 00:43:18;;;;;;;1999.90;999.90;;;21.10;99.90;;;;;;5017341;28;20194;-73
2023/09/17 00:45:43;;;;;;;1999.90;999.90;;;21.10;99.90;;;;;;5017040;28;20208;-74
2023/09/17 00:48:11;;;;;;;1999.90;999.90;;;21.20;99.90;;;;;;5015923;28;20419;-72
2023/09/17 00:50:38;;;;;;;1999.90;999.90;;;21.20;99.90;;;;;;5015578;28;20465;-73
2023/09/17 00:53:05;;;;;;;1999.90;999.90;;;21.20;99.90;;;;;;5014294;28;20528;-72
2023/09/17 00:55:31;;;;;;;1999.90;999.90;;;21.20;99.90;;;;;;5014026;28;20431;-72
2023/09/17 00:57:58;;;;;;;1999.90;999.90;;;21.20;99.90;;;;;;5015188;28;20841;-74
2023/09/17 01:00:24;;;;;;;1999.90;999.90;;;21.20;99.90;;;;;;5016020;28;20410;-74
2023/09/17 01:02:50;;;;;;;1999.90;999.90;;;21.20;99.90;;;;;;5014771;28;20450;-74
2023/09/17 01:05:17;;;;;;;1999.90;999.90;;;21.20;99.90;;;;;;5014470;28;20433;-74
2023/09/17 01:07:44;;;;;;;1999.90;999.90;;;21.10;99.90;;;;;;5014325;28;20929;-74
2023/09/17 01:10:11;;;;;;;1999.90;999.90;;;21.10;99.90;;;;;;5014206;28;20382;-74
2023/09/17 01:12:38;;;;;;;1999.90;999.90;;;21.10;99.90;;;;;;5015278;28;20518;-73
2023/09/17 01:15:06;;;;;;;1999.90;999.90;;;21.10;99.90;;;;;;5014023;28;20405;-71
2023/09/17 01:17:32;;;;;;;1999.90;999.90;;;21.00;99.90;;;;;;5013915;28;20407;-72
2023/09/17 01:19:59;;;;;;;1999.90;999.90;;;21.00;99.90;;;;;;5013944;28;20377;-71
2023/09/17 01:22:32;;;;;;;1999.90;999.90;;;21.00;99.90;;;;;;5013718;28;20422;-74
2023/09/17 01:25:11;;;;;;;1999.90;999.90;;;21.00;99.90;;;;;;5013809;28;20930;-71
2023/09/17 01:27:41;;;;;;;1999.90;999.90;;;21.00;99.90;;;;;;5013808;28;20410;-72
2023/09/17 01:30:25;;;;;;;1999.90;999.90;;;21.00;99.90;;;;;;5014044;28;20415;-74
2023/09/17 01:32:51;;;;;;;1999.90;999.90;;;21.00;99.90;;;;;;5014752;28;20510;-73
2023/09/17 01:35:17;;;;;;;1999.90;999.90;;;21.00;99.90;;;;;;5015933;28;20510;-74
2023/09/17 01:38:00;;;;;;;1999.90;999.90;;;21.00;99.90;;;;;;5015296;28;20191;-72
2023/09/17 01:40:26;;;;;;;1999.90;999.90;;;21.10;99.90;;;;;;5015081;28;20914;-74
2023/09/17 01:42:53;;;;;;;1999.90;999.90;;;21.10;99.90;;;;;;5014507;28;20439;-71
2023/09/17 01:45:21;;;;;;;1999.90;999.90;;;21.10;99.90;;;;;;5013016;28;20458;-72
2023/09/17 01:47:48;;;;;;;1999.90;999.90;;;21.10;99.90;;;;;;5013279;28;20763;-71
2023/09/17 01:50:16;;;;;;;1999.90;999.90;;;21.10;99.90;;;;;;5014038;28;20393;-74
2023/09/17 01:52:45;;;;;;;1999.90;999.90;;;21.10;99.90;;;;;;5013089;28;20441;-74
2023/09/17 01:55:12;;;;;;;1999.90;999.90;;;21.10;99.90;;;;;;5013271;28;20408;-71
2023/09/17 01:57:37;;;;;;;1999.90;999.90;;;21.10;99.90;;;;;;5013133;28;20403;-72
2023/09/17 02:00:14;;;;;;;1999.90;999.90;;;21.10;99.90;;;;;;5013068;28;20493;-73
2023/09/17 02:02:42;;;;;;;1999.90;999.90;;;21.10;99.90;;;;;;5012947;28;20718;-72
2023/09/17 02:05:08;;;;;;;1999.90;999.90;;;21.10;99.90;;;;;;5014162;28;20415;-74
2023/09/17 02:07:33;;;;;;;1999.90;999.90;;;21.10;99.90;;;;;;5014316;28;20414;-73
2023/09/17 02:09:59;;;;;;;1999.90;999.90;;;21.10;99.90;;;;;;5013012;28;20711;-72
2023/09/17 02:12:25;;;;;;;1999.90;999.90;;;21.10;99.90;;;;;;5016077;28;20195;-74
2023/09/17 02:14:51;;;;;;;1999.90;999.90;;;21.00;99.90;;;;;;5015523;28;20180;-71
2023/09/17 02:17:16;;;;;;;1999.90;999.90;;;20.90;99.90;;;;;;5012908;28;20964;-71
2023/09/17 02:19:44;;;;;;;1999.90;999.90;;;20.70;99.90;;;;;;5012818;28;20246;-73
2023/09/17 02:22:09;;;;;;;1999.90;999.90;;;20.60;99.90;;;;;;5019147;28;20189;-73
2023/09/17 02:24:36;;;;;;;1999.90;999.90;;;20.50;99.90;;;;;;5019299;28;20465;-73
2023/09/17 02:27:02;;;;;;;1999.90;999.90;;;20.40;99.90;;;;;;5015280;28;20203;-75
2023/09/17 02:29:28;;;;;;;1999.90;999.90;;;20.30;99.90;;;;;;5013479;28;20418;-73
2023/09/17 02:31:54;;;;;;;1999.90;999.90;;;20.20;99.90;;;;;;5012697;28;20410;-71
2023/09/17 02:34:19;;;;;;;1999.90;999.90;;;20.20;99.90;;;;;;5012481;28;20172;-72
2023/09/17 02:36:45;;;;;;;1999.90;999.90;;;20.30;99.90;;;;;;5012536;28;20956;-72
2023/09/17 02:39:11;;;;;;;1999.90;999.90;;;20.30;99.90;;;;;;5012493;28;20201;-71
2023/09/17 02:41:39;;;;;;;1999.90;999.90;;;20.40;99.90;;;;;;5012443;28;20257;-71
2023/09/17 02:44:05;;;;;;;1999.90;999.90;;;20.50;99.90;;;;;;5012104;28;20806;-72
2023/09/17 02:46:30;;;;;;;1999.90;999.90;;;20.50;99.90;;;;;;5012311;28;20465;-72
2023/09/17 02:48:56;;;;;;;1999.90;999.90;;;20.60;99.90;;;;;;5012489;28;20775;-73
2023/09/17 02:51:22;;;;;;;1999.90;999.90;;;20.60;99.90;;;;;;5012669;28;20187;-71
2023/09/17 02:53:48;;;;;;;1999.90;999.90;;;20.60;99.90;;;;;;5012008;28;20686;-71
2023/09/17 02:56:13;;;;;;;1999.90;999.90;;;20.60;99.90;;;;;;5016154;28;20270;-74
2023/09/17 02:58:39;;;;;;;1999.90;999.90;;;20.60;99.90;;;;;;5015719;28;20910;-73
2023/09/17 03:01:18;;;;;;;1999.90;999.90;;;20.60;99.90;;;;;;5014179;28;20181;-72
2023/09/17 03:03:47;;;;;;;1999.90;999.90;;;20.60;99.90;;;;;;5013807;28;20194;-73
2023/09/17 03:06:13;;;;;;;1999.90;999.90;;;20.60;99.90;;;;;;5014589;28;20454;-72
2023/09/17 03:08:41;;;;;;;1999.90;999.90;;;20.60;99.90;;;;;;5013106;28;20418;-71
2023/09/17 03:11:13;;;;;;;1999.90;999.90;;;20.50;99.90;;;;;;5012042;28;20785;-71
2023/09/17 03:13:44;;;;;;;1999.90;999.90;;;20.60;99.90;;;;;;5011757;28;20427;-71
2023/09/17 03:16:12;;;;;;;1999.90;999.90;;;20.50;99.90;;;;;;5012148;28;20496;-70
2023/09/17 03:18:39;;;;;;;1999.90;999.90;;;20.50;99.90;;;;;;5012067;28;20420;-70
2023/09/17 03:21:06;;;;;;;1999.90;999.90;;;20.50;99.90;;;;;;5012032;28;21117;-70
2023/09/17 03:23:32;;;;;;;1999.90;999.90;;;20.50;99.90;;;;;;5011676;28;20489;-70
2023/09/17 03:26:00;;;;;;;1999.90;999.90;;;20.50;99.90;;;;;;5011869;28;20469;-70
2023/09/17 03:28:27;;;;;;;1999.90;999.90;;;20.50;99.90;;;;;;5011911;28;20411;-71
2023/09/17 03:30:53;;;;;;;1999.90;999.90;;;20.50;99.90;;;;;;5012786;28;20444;-74
2023/09/17 03:33:19;;;;;;;1999.90;999.90;;;20.60;99.90;;;;;;5015502;28;20451;-72
2023/09/17 03:35:46;;;;;;;1999.90;999.90;;;20.50;99.90;;;;;;5013766;28;20185;-71
2023/09/17 03:38:11;;;;;;;1999.90;999.90;;;20.40;99.90;;;;;;5011762;28;20208;-71
2023/09/17 03:40:38;;;;;;;1999.90;999.90;;;20.30;99.90;;;;;;5011822;28;20442;-72
2023/09/17 03:43:04;;;;;;;1999.90;999.90;;;20.20;99.90;;;;;;5013705;28;20210;-73
2023/09/17 03:45:31;;;;;;;1999.90;999.90;;;20.20;99.90;;;;;;5013263;28;20981;-71
2023/09/17 03:47:57;;;;;;;1999.90;999.90;;;20.20;99.90;;;;;;5012882;28;20401;-73
2023/09/17 03:50:23;;;;;;;1999.90;999.90;;;20.20;99.90;;;;;;5012722;28;20383;-73
2023/09/17 03:52:52;;;;;;;1999.90;999.90;;;20.20;99.90;;;;;;5012247;28;20957;-73
2023/09/17 03:55:18;;;;;;;1999.90;999.90;;;20.20;99.90;;;;;;5012406;28;20623;-72
2023/09/17 03:57:44;;;;;;;1999.90;999.90;;;20.20;99.90;;;;;;5012303;28;20491;-73
2023/09/17 04:00:10;;;;;;;1999.90;999.90;;;20.20;99.90;;;;;;5013596;28;20416;-74
2023/09/17 04:02:41;;;;;;;1999.90;999.90;;;20.20;99.90;;;;;;5013835;28;20435;-73
2023/09/17 04:05:10;;;;;;;1999.90;999.90;;;20.20;99.90;;;;;;5012040;28;20403;-74
2023/09/17 04:07:36;;;;;;;1999.90;999.90;;;20.10;99.90;;;;;;5012529;28;20418;-73
2023/09/17 04:10:05;;;;;;;1999.90;999.90;;;20.00;99.90;;;;;;5012822;28;20401;-73
2023/09/17 04:12:36;;;;;;;1999.90;999.90;;;20.00;99.90;;;;;;5011750;28;20425;-71
2023/09/17 04:15:16;;;;;;;1999.90;999.90;;;20.00;99.90;;;;;;5011288;28;20404;-71
2023/09/17 04:17:42;;;;;;;1999.90;999.90;;;20.00;99.90;;;;;;5020829;28;20441;-72
2023/09/17 04:20:13;;;;;;;1999.90;999.90;;;19.90;99.90;;;;;;5016077;28;20402;-73
2023/09/17 04:22:39;;;;;;;1999.90;999.90;;;19.90;99.90;;;;;;5015580;28;20434;-73
2023/09/17 04:25:04;;;;;;;1999.90;999.90;;;19.80;99.90;;;;;;5015133;28;20433;-73
2023/09/17 04:27:30;;;;;;;1999.90;999.90;;;19.80;99.90;;;;;;5015768;28;20658;-73
2023/09/17 04:29:56;;;;;;;1999.90;999.90;;;19.80;99.90;;;;;;5016081;28;20220;-73
2023/09/17 04:32:22;;;;;;;1999.90;999.90;;;19.80;99.90;;;;;;5015698;28;20424;-71
2023/09/17 04:34:48;;;;;;;1999.90;999.90;;;19.80;99.90;;;;;;5014671;28;20341;-71
2023/09/17 04:37:19;;;;;;;1999.90;999.90;;;19.80;99.90;;;;;;5014725;28;20182;-71
2023/09/17 04:39:46;;;;;;;1999.90;999.90;;;19.80;99.90;;;;;;5014695;28;20392;-71
2023/09/17 04:42:11;;;;;;;1999.90;999.90;;;19.80;99.90;;;;;;5016024;28;20967;-74
2023/09/17 04:44:37;;;;;;;1999.90;999.90;;;19.70;99.90;;;;;;5014977;28;20425;-71
2023/09/17 04:47:03;;;;;;;1999.90;999.90;;;19.80;99.90;;;;;;5014401;28;20205;-71
2023/09/17 04:49:30;;;;;;;1999.90;999.90;;;19.80;99.90;;;;;;5014455;28;20637;-71
2023/09/17 04:51:55;;;;;;;1999.90;999.90;;;19.80;99.90;;;;;;5014197;28;20360;-71
2023/09/17 04:54:22;;;;;;;1999.90;999.90;;;19.80;99.90;;;;;;5015536;28;20940;-73
2023/09/17 04:56:48;;;;;;;1999.90;999.90;;;19.80;99.90;;;;;;5015357;28;20184;-73
2023/09/17 04:59:14;;;;;;;1999.90;999.90;;;19.90;99.90;;;;;;5015617;28;20415;-73
2023/09/17 05:01:39;;;;;;;1999.90;999.90;;;19.90;99.90;;;;;;5015761;28;20541;-73
2023/09/17 05:04:05;;;;;;;1999.90;999.90;;;19.90;99.90;;;;;;5015797;28;20184;-73
2023/09/17 05:06:30;;;;;;;1999.90;999.90;;;19.90;99.90;;;;;;5015310;28;20200;-72
2023/09/17 05:08:56;;;;;;;1999.90;999.90;;;19.90;99.90;;;;;;5015679;28;20752;-71
2023/09/17 05:11:21;;;;;;;1999.90;999.90;;;19.90;99.90;;;;;;5014002;28;20257;-70
2023/09/17 05:13:47;;;;;;;1999.90;999.90;;;19.90;99.90;;;;;;5013589;28;20665;-70
2023/09/17 05:16:14;;;;;;;1999.90;999.90;;;20.00;99.90;;;;;;5014479;28;20600;-72
2023/09/17 05:18:40;;;;;;;1999.90;999.90;;;20.00;99.90;;;;;;5016128;28;20182;-73
2023/09/17 05:21:06;;;;;;;1999.90;999.90;;;19.90;99.90;;;;;;5016340;28;20418;-73
2023/09/17 05:23:31;;;;;;;1999.90;999.90;;;20.00;99.90;;;;;;5015422;28;20203;-71
2023/09/17 05:25:57;;;;;;;1999.90;999.90;;;19.90;99.90;;;;;;5013598;28;20547;-71
2023/09/17 05:28:23;;;;;;;1999.90;999.90;;;20.00;99.90;;;;;;5012617;28;20565;-71
2023/09/17 05:30:49;;;;;;;1999.90;999.90;;;20.00;99.90;;;;;;5013720;28;20190;-72
2023/09/17 05:33:15;;;;;;;1999.90;999.90;;;20.00;99.90;;;;;;5013334;28;20425;-71
2023/09/17 05:35:42;;;;;;;1999.90;999.90;;;20.00;99.90;;;;;;5013722;28;20498;-71
2023/09/17 05:38:07;;;;;;;1999.90;999.90;;;20.00;99.90;;;;;;5013536;28;20223;-71
2023/09/17 05:40:34;;;;;;;1999.90;999.90;;;20.10;99.90;;;;;;5014109;28;20417;-74
2023/09/17 05:42:59;;;;;;;1999.90;999.90;;;20.10;99.90;;;;;;5013930;28;20586;-73
2023/09/17 05:45:26;;;;;;;1999.90;999.90;;;20.10;99.90;;;;;;5014148;28;20471;-73
2023/09/17 05:47:52;;;;;;;1999.90;999.90;;;20.10;99.90;;;;;;5019032;28;20202;-73
2023/09/17 05:50:18;;;;;;;1999.90;999.90;;;20.10;99.90;;;;;;5016067;28;20887;-72
2023/09/17 05:52:43;;;;;;;1999.90;999.90;;;20.00;99.90;;;;;;5013120;28;20266;-71
2023/09/17 05:55:09;;;;;;;1999.90;999.90;;;20.00;99.90;;;;;;5013106;28;20180;-72
2023/09/17 05:57:34;;;;;;;1999.90;999.90;;;20.00;99.90;;;;;;5013312;28;20173;-72
2023/09/17 06:00:03;;;;;;;1999.90;999.90;;;20.10;99.90;;;;;;5013266;28;20238;-74
2023/09/17 06:02:29;;;;;;;1999.90;999.90;;;20.10;99.90;;;;;;5014124;28;20204;-74
2023/09/17 06:04:55;;;;;;;1999.90;999.90;;;20.10;99.90;;;;;;5014030;28;20411;-74
2023/09/17 06:07:21;;;;;;;1999.90;999.90;;;20.00;99.90;;;;;;5014519;28;21037;-73
2023/09/17 06:09:47;;;;;;;1999.90;999.90;;;20.00;99.90;;;;;;5014044;28;20172;-71
2023/09/17 06:12:12;;;;;;;1999.90;999.90;;;20.00;99.90;;;;;;5013285;28;20196;-74
2023/09/17 06:14:39;;;;;;;1999.90;999.90;;;20.00;99.90;;;;;;5013068;28;20174;-74
2023/09/17 06:17:05;;;;;;;1999.90;999.90;;;20.00;99.90;;;;;;5013292;28;20418;-74
2023/09/17 06:19:32;;;;;;;1999.90;999.90;;;20.10;99.90;;;;;;5013508;28;20419;-74
2023/09/17 06:21:59;;;;;;;1999.90;999.90;;;19.90;99.90;;;;;;5013392;28;20629;-71
2023/09/17 06:24:24;;;;;;;1999.90;999.90;;;20.10;99.90;;;;;;4999873;28;20431;-72
2023/09/17 06:26:50;;;;;;;1999.90;999.90;;;20.10;99.90;;;;;;4992937;28;20587;-72
2023/09/17 06:29:16;;;;;;;1999.90;999.90;;;20.00;99.90;;;;;;4994309;28;20553;-74
2023/09/17 06:31:42;;;;;;;1999.90;999.90;;;20.00;99.90;;;;;;4993902;28;20867;-74
2023/09/17 06:34:09;;;;;;;1999.90;999.90;;;20.10;99.90;;;;;;4993808;28;20178;-74
2023/09/17 06:36:35;;;;;;;1999.90;999.90;;;20.10;99.90;;;;;;4993573;28;20570;-74
2023/09/17 06:39:02;;;;;;;1999.90;999.90;;;20.20;99.90;;;;;;4992896;28;20408;-74
2023/09/17 06:41:28;;;;;;;1999.90;999.90;;;20.20;99.90;;;;;;4993333;28;20429;-74
2023/09/17 06:43:53;;;;;;;1999.90;999.90;;;20.30;99.90;;;;;;4992891;28;20411;-71
2023/09/17 06:46:19;;;;;;;1999.90;999.90;;;20.30;99.90;;;;;;4992755;28;20206;-71
2023/09/17 06:48:45;;;;;;;1999.90;999.90;;;20.30;99.90;;;;;;4992782;28;20548;-72
2023/09/17 06:51:10;;;;;;;1999.90;999.90;;;20.40;99.90;;;;;;4992956;28;20220;-74
2023/09/17 06:53:36;;;;;;;1999.90;999.90;;;20.40;99.90;;;;;;4992519;28;20214;-74
2023/09/17 06:56:02;;;;;;;1999.90;999.90;;;20.40;99.90;;;;;;5011321;22;20220;-71
2023/09/17 06:58:28;;;;;;;1999.90;999.90;;;20.50;99.90;;;;;;5012508;28;20173;-71
2023/09/17 07:00:54;;;;;;;1999.90;999.90;;;20.60;99.90;;;;;;5012817;28;20406;-72
2023/09/17 07:03:19;;;;;;;1999.90;999.90;;;20.60;99.90;;;;;;5012332;28;20606;-71
2023/09/17 07:05:45;;;;;;;1999.90;999.90;;;20.70;99.90;;;;;;5012336;28;20447;-73
2023/09/17 07:08:11;;;;;;;1999.90;999.90;;;20.70;99.90;;;;;;5020679;28;20169;-73
2023/09/17 07:10:36;;;;;;;1999.90;999.90;;;20.80;99.90;;;;;;5021681;28;20183;-74
2023/09/17 07:13:02;;;;;;;1999.90;999.90;;;20.80;99.90;;;;;;5024227;28;20193;-74
2023/09/17 07:15:28;;;;;;;1999.90;999.90;;;20.80;99.90;;;;;;5027615;28;20173;-74
2023/09/17 07:17:54;;;;;;;1999.90;999.90;;;20.90;99.90;;;;;;5036121;28;20258;-72
2023/09/17 07:20:19;;;;;;;1999.90;999.90;;;20.90;99.90;;;;;;5041228;28;20172;-73
2023/09/17 07:22:49;;;;;;;1999.90;999.90;;;20.90;99.90;;;;;;5037831;28;20485;-72
2023/09/17 07:25:14;;;;;;;1999.90;999.90;;;21.00;99.90;;;;;;5031353;28;20249;-72
2023/09/17 07:27:40;;;;;;;1999.90;999.90;;;21.10;99.90;;;;;;5024448;28;20884;-71
2023/09/17 07:30:06;;;;;;;1999.90;999.90;;;21.20;99.90;;;;;;5024427;28;20175;-73
2023/09/17 07:32:31;;;;;;;1999.90;999.90;;;21.20;99.90;;;;;;5031978;28;20194;-73
2023/09/17 07:34:58;;;;;;;1999.90;999.90;;;21.30;99.90;;;;;;5040472;28;20400;-71
2023/09/17 07:37:23;;;;;;;1999.90;999.90;;;21.30;99.90;;;;;;5044191;28;20253;-72
2023/09/17 07:39:56;;;;;;;1999.90;999.90;;;21.30;99.90;;;;;;5037691;28;20442;-71
2023/09/17 07:42:22;;;;;;;1999.90;999.90;;;21.40;99.90;;;;;;5035412;28;20203;-72
2023/09/17 07:44:48;;;;;;;1999.90;999.90;;;21.50;99.90;;;;;;5042675;28;20421;-74
2023/09/17 07:47:14;;;;;;;1999.90;999.90;;;21.50;99.90;;;;;;5042989;28;20869;-73
2023/09/17 07:49:40;;;;;;;1999.90;999.90;;;21.60;99.90;;;;;;5044838;28;20174;-71
2023/09/17 07:52:06;;;;;;;1999.90;999.90;;;21.60;99.90;;;;;;5036046;28;20574;-74
2023/09/17 07:54:42;;;;;;;1999.90;999.90;;;21.70;99.90;;;;;;5035760;28;20253;-74
2023/09/17 07:57:09;;;;;;;1999.90;999.90;;;21.70;99.90;;;;;;5035544;28;20423;-73
2023/09/17 07:59:34;;;;;;;1999.90;999.90;;;21.80;99.90;;;;;;5035527;28;20507;-71
2023/09/17 08:02:00;;;;;;;1999.90;999.90;;;21.80;99.90;;;;;;5035123;28;20440;-72
2023/09/17 08:04:26;;;;;;;1999.90;999.90;;;21.90;99.90;;;;;;5035043;28;20185;-71
2023/09/17 08:06:52;;;;;;;1999.90;999.90;;;22.00;99.90;;;;;;5034858;28;20446;-72
2023/09/17 08:09:17;;;;;;;1999.90;999.90;;;22.00;99.90;;;;;;5035044;28;20236;-71
2023/09/17 08:11:43;;;;;;;1999.90;999.90;;;22.10;99.90;;;;;;5031905;28;20180;-71
2023/09/17 08:14:10;;;;;;;1999.90;999.90;;;22.10;99.90;;;;;;5026521;28;20630;-70
2023/09/17 08:16:36;;;;;;;1999.90;999.90;;;22.20;99.90;;;;;;5035093;28;20393;-71
2023/09/17 08:19:02;;;;;;;1999.90;999.90;;;22.30;99.90;;;;;;5034775;28;20456;-71
2023/09/17 08:21:28;;;;;;;1999.90;999.90;;;22.30;99.90;;;;;;5034822;28;20388;-73
2023/09/17 08:23:54;;;;;;;1999.90;999.90;;;22.40;99.90;;;;;;5034609;28;20224;-74
2023/09/17 08:26:21;;;;;;;1999.90;999.90;;;22.40;99.90;;;;;;5035103;28;20500;-73
2023/09/17 08:28:49;;;;;;;1999.90;999.90;;;22.50;99.90;;;;;;5035246;28;20198;-73
2023/09/17 08:31:16;;;;;;;1999.90;999.90;;;22.50;99.90;;;;;;5035130;28;20412;-71
2023/09/17 08:33:42;;;;;;;1999.90;999.90;;;22.50;99.90;;;;;;5034219;28;20419;-70
2023/09/17 08:36:09;;;;;;;1999.90;999.90;;;22.60;99.90;;;;;;5034377;28;20415;-71
2023/09/17 08:38:35;;;;;;;1999.90;999.90;;;22.60;99.90;;;;;;5034702;28;20274;-72
2023/09/17 08:41:03;;;;;;;1999.90;999.90;;;22.70;99.90;;;;;;5036059;28;20429;-73
2023/09/17 08:43:29;;;;;;;1999.90;999.90;;;22.80;99.90;;;;;;5040705;28;20441;-74
2023/09/17 08:45:56;;;;;;;1999.90;999.90;;;22.80;99.90;;;;;;5041364;28;20438;-73
2023/09/17 08:48:22;;;;;;;1999.90;999.90;;;22.70;99.90;;;;;;5039529;28;20458;-73
2023/09/17 08:50:51;;;;;;;1999.90;999.90;;;22.70;99.90;;;;;;5039675;28;20447;-73
2023/09/17 08:53:22;;;;;;;1999.90;999.90;;;22.80;99.90;;;;;;5039635;28;20422;-73
2023/09/17 08:55:54;;;;;;;1999.90;999.90;;;22.80;99.90;;;;;;5039590;28;20423;-73
2023/09/17 08:58:25;;;;;;;1999.90;999.90;;;23.00;99.90;;;;;;5040310;28;20447;-73
2023/09/17 09:00:54;;;;;;;1999.90;999.90;;;23.00;99.90;;;;;;5039504;28;20419;-72
2023/09/17 09:03:25;;;;;;;1999.90;999.90;;;23.10;99.90;;;;;;5038882;28;20404;-73
2023/09/17 09:05:55;;;;;;;1999.90;999.90;;;23.30;99.90;;;;;;5022819;28;20475;-72
2023/09/17 09:08:22;;;;;;;1999.90;999.90;;;23.30;99.90;;;;;;5002633;28;20905;-72
2023/09/17 09:10:48;;;;;;;1999.90;999.90;;;23.40;99.90;;;;;;5008512;28;20416;-73
2023/09/17 09:13:13;;;;;;;1999.90;999.90;;;23.50;99.90;;;;;;5011776;28;20849;-73
2023/09/17 09:15:40;;;;;;;1999.90;999.90;;;23.60;99.90;;;;;;5011766;28;20173;-72
2023/09/17 09:18:08;;;;;;;1999.90;999.90;;;23.70;99.90;;;;;;5013251;28;20173;-72
2023/09/17 09:20:36;;;;;;;1999.90;999.90;;;23.80;99.90;;;;;;5012979;28;21011;-72
2023/09/17 09:23:01;;;;;;;1999.90;999.90;;;23.90;99.90;;;;;;5012658;28;21200;-72
2023/09/17 09:25:28;;;;;;;1999.90;999.90;;;23.90;99.90;;;;;;5012305;28;20431;-71
2023/09/17 09:27:59;;;;;;;1999.90;999.90;;;23.90;99.90;;;;;;5012099;28;20581;-71
2023/09/17 09:30:26;;;;;;;1999.90;999.90;;;24.00;99.90;;;;;;5012864;28;20395;-72
2023/09/17 09:32:51;;;;;;;1999.90;999.90;;;24.10;99.90;;;;;;5013173;28;20453;-70
2023/09/17 09:35:18;;;;;;;1999.90;999.90;;;24.10;99.90;;;;;;5013006;28;20790;-71
2023/09/17 09:37:45;;;;;;;1999.90;999.90;;;24.10;99.90;;;;;;5012725;28;20260;-70
2023/09/17 09:40:11;;;;;;;1999.90;999.90;;;24.30;99.90;;;;;;5012759;28;20386;-74
2023/09/17 09:42:36;;;;;;;1999.90;999.90;;;24.40;99.90;;;;;;5012928;28;20478;-71
2023/09/17 09:45:02;;;;;;;1999.90;999.90;;;24.40;99.90;;;;;;5011926;28;20395;-71
2023/09/17 09:47:30;;;;;;;1999.90;999.90;;;24.40;99.90;;;;;;5012675;28;20579;-72
2023/09/17 09:49:56;;;;;;;1999.90;999.90;;;24.40;99.90;;;;;;5012865;28;20440;-71
2023/09/17 09:52:23;;;;;;;1999.90;999.90;;;24.50;99.90;;;;;;5017933;28;20442;-71
2023/09/17 09:54:49;;;;;;;1999.90;999.90;;;24.60;99.90;;;;;;5015893;28;20779;-71
2023/09/17 09:57:18;;;;;;;1999.90;999.90;;;24.80;99.90;;;;;;5019594;28;20402;-72
2023/09/17 09:59:50;;;;;;;1999.90;999.90;;;24.90;99.90;;;;;;5011912;28;20262;-72
2023/09/17 10:02:20;;;;;;;1999.90;999.90;;;24.90;99.90;;;;;;5012411;28;20432;-73
2023/09/17 10:04:46;;;;;;;1999.90;999.90;;;25.00;99.90;;;;;;5012347;28;20465;-72
2023/09/17 10:07:14;;;;;;;1999.90;999.90;;;25.00;99.90;;;;;;5012225;28;20865;-71
2023/09/17 10:09:41;;;;;;;1999.90;999.90;;;25.10;99.90;;;;;;5012489;28;20307;-72
2023/09/17 10:12:07;;;;;;;1999.90;999.90;;;25.20;99.90;;;;;;5015547;28;20518;-73
2023/09/17 10:14:40;;;;;;;1999.90;999.90;;;25.30;99.90;;;;;;5012518;28;20442;-72
2023/09/17 10:17:07;;;;;;;1999.90;999.90;;;25.40;99.90;;;;;;5012131;28;20423;-72
2023/09/17 10:19:34;;;;;;;1999.90;999.90;;;25.50;99.90;;;;;;5011292;28;20836;-72
2023/09/17 10:22:03;;;;;;;1999.90;999.90;;;25.60;99.90;;;;;;5011654;28;20497;-72
2023/09/17 10:24:31;;;;;;;1999.90;999.90;;;25.70;99.90;;;;;;5011724;28;20416;-72
2023/09/17 10:26:59;;;;;;;1999.90;999.90;;;25.70;99.90;;;;;;5012056;28;20430;-69
2023/09/17 10:29:26;;;;;;;1999.90;999.90;;;25.90;99.90;;;;;;5012188;28;20408;-70
2023/09/17 10:31:53;;;;;;;1999.90;999.90;;;25.90;99.90;;;;;;5012004;28;20512;-69
2023/09/17 10:34:19;;;;;;;1999.90;999.90;;;26.00;99.90;;;;;;5010465;28;20421;-69
2023/09/17 10:36:47;;;;;;;1999.90;999.90;;;26.10;99.90;;;;;;5009692;28;20906;-69
2023/09/17 10:39:13;;;;;;;1999.90;999.90;;;26.10;99.90;;;;;;5011903;28;20507;-70
2023/09/17 10:41:40;;;;;;;1999.90;999.90;;;26.20;99.90;;;;;;5011770;28;20404;-69
2023/09/17 10:44:07;;;;;;;1999.90;999.90;;;26.30;99.90;;;;;;5006630;28;20422;-69
2023/09/17 10:46:36;;;;;;;1999.90;999.90;;;26.40;99.90;;;;;;5011696;28;20447;-69
2023/09/17 10:49:01;;;;;;;1999.90;999.90;;;26.50;99.90;;;;;;5011649;28;20407;-69
2023/09/17 10:51:27;;;;;;;1999.90;999.90;;;26.60;99.90;;;;;;5011336;28;20441;-70
2023/09/17 10:53:54;;;;;;;1999.90;999.90;;;26.70;99.90;;;;;;5011323;28;20672;-69
2023/09/17 10:56:20;;;;;;;1999.90;999.90;;;26.80;99.90;;;;;;5011656;28;20552;-69
2023/09/17 10:58:49;;;;;;;1999.90;999.90;;;26.70;99.90;;;;;;5011434;28;20483;-70
2023/09/17 11:01:19;;;;;;;1999.90;999.90;;;26.80;99.90;;;;;;5011725;28;20411;-70
2023/09/17 11:03:48;;;;;;;1999.90;999.90;;;27.00;99.90;;;;;;5011249;28;20420;-69
2023/09/17 11:06:23;;;;;;;1999.90;999.90;;;27.00;99.90;;;;;;5011156;28;20438;-69
2023/09/17 11:08:51;;;;;;;1999.90;999.90;;;27.10;99.90;;;;;;5011456;28;20407;-69
2023/09/17 11:11:18;;;;;;;1999.90;999.90;;;27.20;99.90;;;;;;5011545;28;21013;-69
2023/09/17 11:13:46;;;;;;;1999.90;999.90;;;27.30;99.90;;;;;;5010903;28;20535;-70
2023/09/17 11:16:28;;;;;;;1999.90;999.90;;;27.20;99.90;;;;;;5011494;28;20419;-70
2023/09/17 11:19:11;;;;;;;1999.90;999.90;;;27.30;99.90;;;;;;5011347;28;20398;-69
2023/09/17 11:21:39;;;;;;;1999.90;999.90;;;27.50;99.90;;;;;;5011083;28;20440;-69
2023/09/17 11:24:07;;;;;;;1999.90;999.90;;;27.60;99.90;;;;;;5010932;28;20430;-69
2023/09/17 11:26:37;;;;;;;1999.90;999.90;;;27.40;99.90;;;;;;5014796;28;20422;-69
2023/09/17 11:29:05;;;;;;;1999.90;999.90;;;27.20;99.90;;;;;;5014943;28;20429;-69
2023/09/17 11:31:57;;;;;;;1999.90;999.90;;;27.10;99.90;;;;;;5015277;28;20419;-69
2023/09/17 11:34:23;;;;;;;1999.90;999.90;;;27.10;99.90;;;;;;5011866;28;20429;-69
2023/09/17 11:36:50;;;;;;;1999.90;999.90;;;27.30;99.90;;;;;;5015078;28;20412;-70
2023/09/17 11:39:17;;;;;;;1999.90;999.90;;;27.70;99.90;;;;;;5015092;28;20184;-69
2023/09/17 11:41:52;;;;;;;1999.90;999.90;;;28.30;99.90;;;;;;5014799;28;20505;-70
2023/09/17 11:44:20;;;;;;;1999.90;999.90;;;29.20;99.90;;;;;;5015049;28;20411;-69
2023/09/17 11:46:46;;;;;;;1999.90;999.90;;;30.30;99.90;;;;;;5014934;28;20478;-69
2023/09/17 11:49:11;;;;;;;1999.90;999.90;;;31.30;97.10;;;;;;5014847;28;20411;-70
2023/09/17 11:51:44;;;;;;;1999.90;999.90;;;32.30;92.10;;;;;;5014851;28;20423;-70
2023/09/17 11:54:18;;;;;;;1999.90;999.90;;;33.10;74.70;;;;;;5014622;28;20185;-69
2023/09/17 11:56:50;;;;;;;1999.90;999.90;;;33.80;57.50;;;;;;5014735;28;20480;-69
2023/09/17 11:59:16;;;;;;;1999.90;999.90;;;34.50;47.60;;;;;;5014784;28;20407;-70